sensor_id;sensor_type;location;lat;lon;timestamp;pressure;altitude;pressure_sealevel;temperature;humidity
50484;BME280;36409;52.168;20.878;2022-12-20T00:02:01;101233.58;;;-2.38;77.49
50484;BME280;36409;52.168;20.878;2022-12-20T00:04:31;101227.84;;;-2.34;77.70
50484;BME280;36409;52.168;20.878;2022-12-20T00:07:01;101234.95;;;-2.28;78.05
50484;BME280;36409;52.168;20.878;2022-12-20T00:09:30;101225.75;;;-2.25;77.79
50484;BME280;36409;52.168;20.878;2022-12-20T00:11:59;101213.99;;;-2.21;78.04
50484;BME280;36409;52.168;20.878;2022-12-20T00:14:29;101211.60;;;-2.18;77.60
50484;BME280;36409;52.168;20.878;2022-12-20T00:17:00;101209.27;;;-2.13;78.16
50484;BME280;36409;52.168;20.878;2022-12-20T00:19:29;101205.19;;;-2.10;78.07
50484;BME280;36409;52.168;20.878;2022-12-20T00:21:58;101195.11;;;-2.07;77.92
50484;BME280;36409;52.168;20.878;2022-12-20T00:24:27;101200.46;;;-2.02;77.89
50484;BME280;36409;52.168;20.878;2022-12-20T00:26:56;101202.38;;;-1.98;78.49
50484;BME280;36409;52.168;20.878;2022-12-20T00:29:25;101196.59;;;-1.94;77.91
50484;BME280;36409;52.168;20.878;2022-12-20T00:31:54;101197.72;;;-1.89;78.46
50484;BME280;36409;52.168;20.878;2022-12-20T00:34:23;101191.86;;;-1.86;78.36
50484;BME280;36409;52.168;20.878;2022-12-20T00:36:54;101192.09;;;-1.81;78.23
50484;BME280;36409;52.168;20.878;2022-12-20T00:39:23;101189.69;;;-1.78;78.67
50484;BME280;36409;52.168;20.878;2022-12-20T00:41:52;101195.03;;;-1.74;78.58
50484;BME280;36409;52.168;20.878;2022-12-20T00:44:22;101190.94;;;-1.70;78.52
50484;BME280;36409;52.168;20.878;2022-12-20T00:46:51;101191.95;;;-1.66;78.51
50484;BME280;36409;52.168;20.878;2022-12-20T00:49:23;101193.88;;;-1.62;78.33
50484;BME280;36409;52.168;20.878;2022-12-20T00:51:54;101194.03;;;-1.59;78.33
50484;BME280;36409;52.168;20.878;2022-12-20T00:54:25;101179.59;;;-1.57;78.51
50484;BME280;36409;52.168;20.878;2022-12-20T00:56:56;101178.09;;;-1.53;78.56
50484;BME280;36409;52.168;20.878;2022-12-20T00:59:25;101185.89;;;-1.50;78.11
50484;BME280;36409;52.168;20.878;2022-12-20T01:01:54;101177.50;;;-1.48;78.47
50484;BME280;36409;52.168;20.878;2022-12-20T01:04:24;101174.20;;;-1.45;78.55
50484;BME280;36409;52.168;20.878;2022-12-20T01:06:53;101163.21;;;-1.43;78.70
50484;BME280;36409;52.168;20.878;2022-12-20T01:09:23;101167.59;;;-1.40;78.30
50484;BME280;36409;52.168;20.878;2022-12-20T01:11:52;101160.86;;;-1.38;78.55
50484;BME280;36409;52.168;20.878;2022-12-20T01:14:24;101161.02;;;-1.35;78.57
50484;BME280;36409;52.168;20.878;2022-12-20T01:16:53;101163.64;;;-1.33;79.12
50484;BME280;36409;52.168;20.878;2022-12-20T01:19:22;101151.78;;;-1.31;78.81
50484;BME280;36409;52.168;20.878;2022-12-20T01:21:52;101157.06;;;-1.28;78.75
50484;BME280;36409;52.168;20.878;2022-12-20T01:24:23;101159.69;;;-1.27;78.69
50484;BME280;36409;52.168;20.878;2022-12-20T01:26:51;101145.27;;;-1.25;78.74
50484;BME280;36409;52.168;20.878;2022-12-20T01:29:20;101142.05;;;-1.20;79.18
50484;BME280;36409;52.168;20.878;2022-12-20T01:31:49;101143.00;;;-1.18;79.12
50484;BME280;36409;52.168;20.878;2022-12-20T01:34:21;101135.37;;;-1.17;79.22
50484;BME280;36409;52.168;20.878;2022-12-20T01:36:50;101128.64;;;-1.15;78.54
50484;BME280;36409;52.168;20.878;2022-12-20T01:39:20;101125.28;;;-1.14;78.75
50484;BME280;36409;52.168;20.878;2022-12-20T01:41:50;101114.22;;;-1.13;79.54
50484;BME280;36409;52.168;20.878;2022-12-20T01:44:54;101116.03;;;-1.10;79.17
50484;BME280;36409;52.168;20.878;2022-12-20T01:47:30;101110.11;;;-1.09;79.79
50484;BME280;36409;52.168;20.878;2022-12-20T01:50:02;101109.36;;;-1.06;79.33
50484;BME280;36409;52.168;20.878;2022-12-20T01:52:35;101097.50;;;-1.04;79.67
50484;BME280;36409;52.168;20.878;2022-12-20T01:55:14;101089.92;;;-1.01;79.89
50484;BME280;36409;52.168;20.878;2022-12-20T01:57:53;101090.01;;;-1.00;79.52
50484;BME280;36409;52.168;20.878;2022-12-20T02:00:29;101077.34;;;-0.97;80.03
50484;BME280;36409;52.168;20.878;2022-12-20T02:03:01;101076.50;;;-0.96;79.07
50484;BME280;36409;52.168;20.878;2022-12-20T02:05:33;101070.56;;;-0.95;80.02
50484;BME280;36409;52.168;20.878;2022-12-20T02:08:03;101063.77;;;-0.94;79.64
50484;BME280;36409;52.168;20.878;2022-12-20T02:10:45;101070.66;;;-0.93;79.49
50484;BME280;36409;52.168;20.878;2022-12-20T02:13:24;101073.27;;;-0.91;80.09
50484;BME280;36409;52.168;20.878;2022-12-20T02:15:58;101065.64;;;-0.90;79.79
50484;BME280;36409;52.168;20.878;2022-12-20T02:18:32;101068.29;;;-0.88;79.46
50484;BME280;36409;52.168;20.878;2022-12-20T02:21:26;101061.45;;;-0.88;79.64
50484;BME280;36409;52.168;20.878;2022-12-20T02:24:28;101057.34;;;-0.84;80.03
50484;BME280;36409;52.168;20.878;2022-12-20T02:27:36;101050.54;;;-0.84;79.54
50484;BME280;36409;52.168;20.878;2022-12-20T02:30:19;101049.78;;;-0.81;79.27
50484;BME280;36409;52.168;20.878;2022-12-20T02:32:56;101051.55;;;-0.80;79.31
50484;BME280;36409;52.168;20.878;2022-12-20T02:35:29;101052.44;;;-0.80;79.91
50484;BME280;36409;52.168;20.878;2022-12-20T02:38:00;101052.55;;;-0.76;79.71
50484;BME280;36409;52.168;20.878;2022-12-20T02:40:34;101051.73;;;-0.75;80.32
50484;BME280;36409;52.168;20.878;2022-12-20T02:43:03;101043.23;;;-0.74;79.47
50484;BME280;36409;52.168;20.878;2022-12-20T02:45:57;101050.93;;;-0.74;79.88
50484;BME280;36409;52.168;20.878;2022-12-20T02:48:30;101050.98;;;-0.73;80.37
50484;BME280;36409;52.168;20.878;2022-12-20T02:51:02;101052.83;;;-0.70;80.16
50484;BME280;36409;52.168;20.878;2022-12-20T02:53:33;101054.58;;;-0.69;80.15
50484;BME280;36409;52.168;20.878;2022-12-20T02:56:09;101052.07;;;-0.68;80.09
50484;BME280;36409;52.168;20.878;2022-12-20T02:58:44;101039.30;;;-0.66;80.06
50484;BME280;36409;52.168;20.878;2022-12-20T03:01:20;101040.25;;;-0.64;80.58
50484;BME280;36409;52.168;20.878;2022-12-20T03:03:51;101037.77;;;-0.63;80.77
50484;BME280;36409;52.168;20.878;2022-12-20T03:06:24;101022.48;;;-0.59;80.60
50484;BME280;36409;52.168;20.878;2022-12-20T03:08:54;101017.44;;;-0.58;79.82
50484;BME280;36409;52.168;20.878;2022-12-20T03:11:27;101026.00;;;-0.57;80.60
50484;BME280;36409;52.168;20.878;2022-12-20T03:13:55;101013.23;;;-0.56;80.12
50484;BME280;36409;52.168;20.878;2022-12-20T03:16:28;101017.63;;;-0.53;80.51
50484;BME280;36409;52.168;20.878;2022-12-20T03:18:57;101022.00;;;-0.51;81.12
50484;BME280;36409;52.168;20.878;2022-12-20T03:21:26;101022.00;;;-0.51;80.27
50484;BME280;36409;52.168;20.878;2022-12-20T03:23:55;101046.03;;;-0.49;79.88
50484;BME280;36409;52.168;20.878;2022-12-20T03:26:31;101039.20;;;-0.48;80.03
50484;BME280;36409;52.168;20.878;2022-12-20T03:29:00;101046.17;;;-0.45;80.14
50484;BME280;36409;52.168;20.878;2022-12-20T03:31:29;101023.13;;;-0.44;80.37
50484;BME280;36409;52.168;20.878;2022-12-20T03:34:00;101011.25;;;-0.42;80.00
50484;BME280;36409;52.168;20.878;2022-12-20T03:36:29;101013.01;;;-0.41;80.33
50484;BME280;36409;52.168;20.878;2022-12-20T03:39:03;101026.70;;;-0.40;80.44
50484;BME280;36409;52.168;20.878;2022-12-20T03:41:36;101028.45;;;-0.39;80.60
50484;BME280;36409;52.168;20.878;2022-12-20T03:44:05;101024.27;;;-0.37;80.77
50484;BME280;36409;52.168;20.878;2022-12-20T03:46:35;101016.63;;;-0.36;80.50
50484;BME280;36409;52.168;20.878;2022-12-20T03:49:05;101017.52;;;-0.35;80.45
50484;BME280;36409;52.168;20.878;2022-12-20T03:51:38;101013.24;;;-0.35;80.26
50484;BME280;36409;52.168;20.878;2022-12-20T03:54:08;101009.91;;;-0.32;80.68
50484;BME280;36409;52.168;20.878;2022-12-20T03:56:58;101014.23;;;-0.31;80.47
50484;BME280;36409;52.168;20.878;2022-12-20T03:59:27;101028.01;;;-0.29;81.04
50484;BME280;36409;52.168;20.878;2022-12-20T04:01:56;101026.34;;;-0.28;81.49
50484;BME280;36409;52.168;20.878;2022-12-20T04:04:30;101022.06;;;-0.28;80.66
50484;BME280;36409;52.168;20.878;2022-12-20T04:06:59;101023.02;;;-0.26;80.97
50484;BME280;36409;52.168;20.878;2022-12-20T04:09:28;101024.77;;;-0.25;81.16
50484;BME280;36409;52.168;20.878;2022-12-20T04:12:04;101023.87;;;-0.25;81.26
50484;BME280;36409;52.168;20.878;2022-12-20T04:14:34;101013.69;;;-0.24;80.70
50484;BME280;36409;52.168;20.878;2022-12-20T04:17:04;101006.86;;;-0.23;80.57
50484;BME280;36409;52.168;20.878;2022-12-20T04:19:33;100997.48;;;-0.23;81.38
50484;BME280;36409;52.168;20.878;2022-12-20T04:22:06;100994.07;;;-0.22;80.89
50484;BME280;36409;52.168;20.878;2022-12-20T04:24:52;100990.69;;;-0.21;80.97
50484;BME280;36409;52.168;20.878;2022-12-20T04:27:28;100988.12;;;-0.21;81.79
50484;BME280;36409;52.168;20.878;2022-12-20T04:29:57;101001.05;;;-0.19;81.03
50484;BME280;36409;52.168;20.878;2022-12-20T04:32:27;100996.72;;;-0.20;80.90
50484;BME280;36409;52.168;20.878;2022-12-20T04:34:59;100989.07;;;-0.19;81.08
50484;BME280;36409;52.168;20.878;2022-12-20T04:37:30;100992.45;;;-0.20;81.45
50484;BME280;36409;52.168;20.878;2022-12-20T04:40:00;100997.58;;;-0.20;80.64
50484;BME280;36409;52.168;20.878;2022-12-20T04:42:42;101015.55;;;-0.20;80.89
50484;BME280;36409;52.168;20.878;2022-12-20T04:45:22;101004.42;;;-0.20;81.54
50484;BME280;36409;52.168;20.878;2022-12-20T04:47:52;100997.58;;;-0.20;81.68
50484;BME280;36409;52.168;20.878;2022-12-20T04:50:29;100997.58;;;-0.20;81.81
50484;BME280;36409;52.168;20.878;2022-12-20T04:52:58;100997.58;;;-0.20;81.42
50484;BME280;36409;52.168;20.878;2022-12-20T04:55:48;100999.34;;;-0.19;81.41
50484;BME280;36409;52.168;20.878;2022-12-20T04:58:20;101001.09;;;-0.18;80.89
50484;BME280;36409;52.168;20.878;2022-12-20T05:00:52;101001.14;;;-0.16;81.43
50484;BME280;36409;52.168;20.878;2022-12-20T05:03:28;101001.14;;;-0.16;81.85
50484;BME280;36409;52.168;20.878;2022-12-20T05:05:59;101002.03;;;-0.16;81.85
50484;BME280;36409;52.168;20.878;2022-12-20T05:08:28;100993.52;;;-0.14;81.74
50484;BME280;36409;52.168;20.878;2022-12-20T05:10:58;100982.45;;;-0.13;81.49
50484;BME280;36409;52.168;20.878;2022-12-20T05:13:31;100984.20;;;-0.12;81.00
50484;BME280;36409;52.168;20.878;2022-12-20T05:16:02;100971.36;;;-0.12;81.33
50484;BME280;36409;52.168;20.878;2022-12-20T05:18:34;100974.84;;;-0.10;81.84
50484;BME280;36409;52.168;20.878;2022-12-20T05:21:07;100969.78;;;-0.09;81.74
50484;BME280;36409;52.168;20.878;2022-12-20T05:23:54;100975.78;;;-0.08;81.17
50484;BME280;36409;52.168;20.878;2022-12-20T05:26:58;100975.86;;;-0.07;81.55
50484;BME280;36409;52.168;20.878;2022-12-20T05:29:27;100969.91;;;-0.06;82.01
50484;BME280;36409;52.168;20.878;2022-12-20T05:31:56;100965.69;;;-0.04;82.25
50484;BME280;36409;52.168;20.878;2022-12-20T05:34:26;100965.69;;;-0.04;81.42
50484;BME280;36409;52.168;20.878;2022-12-20T05:36:56;100960.63;;;-0.02;82.26
50484;BME280;36409;52.168;20.878;2022-12-20T05:39:28;100958.11;;;-0.01;81.48
50484;BME280;36409;52.168;20.878;2022-12-20T05:42:01;100952.13;;;-0.01;81.32
50484;BME280;36409;52.168;20.878;2022-12-20T05:44:31;100969.28;;;0.00;82.00
50484;BME280;36409;52.168;20.878;2022-12-20T05:47:01;100973.56;;;0.01;82.30
50484;BME280;36409;52.168;20.878;2022-12-20T05:49:34;100974.45;;;0.02;81.47
50484;BME280;36409;52.168;20.878;2022-12-20T05:52:05;100975.31;;;0.02;82.21
50484;BME280;36409;52.168;20.878;2022-12-20T05:54:39;100980.45;;;0.02;81.67
50484;BME280;36409;52.168;20.878;2022-12-20T05:57:12;100966.80;;;0.03;82.27
50484;BME280;36409;52.168;20.878;2022-12-20T05:59:43;100971.12;;;0.04;82.15
50484;BME280;36409;52.168;20.878;2022-12-20T06:02:24;100971.17;;;0.06;81.43
50484;BME280;36409;52.168;20.878;2022-12-20T06:05:01;100971.25;;;0.07;82.26
50484;BME280;36409;52.168;20.878;2022-12-20T06:07:33;100967.79;;;0.07;82.24
50484;BME280;36409;52.168;20.878;2022-12-20T06:10:05;100967.79;;;0.07;82.28
50484;BME280;36409;52.168;20.878;2022-12-20T06:12:58;100958.33;;;0.06;81.40
50484;BME280;36409;52.168;20.878;2022-12-20T06:15:28;100955.84;;;0.07;81.42
50484;BME280;36409;52.168;20.878;2022-12-20T06:17:58;100958.41;;;0.07;81.95
50484;BME280;36409;52.168;20.878;2022-12-20T06:20:28;100960.17;;;0.08;81.56
50484;BME280;36409;52.168;20.878;2022-12-20T06:23:01;100963.59;;;0.09;82.46
50484;BME280;36409;52.168;20.878;2022-12-20T06:25:43;100965.30;;;0.08;81.80
50484;BME280;36409;52.168;20.878;2022-12-20T06:28:13;100965.34;;;0.10;82.27
50484;BME280;36409;52.168;20.878;2022-12-20T06:30:52;100969.72;;;0.12;82.42
50484;BME280;36409;52.168;20.878;2022-12-20T06:33:34;100966.34;;;0.13;82.37
50484;BME280;36409;52.168;20.878;2022-12-20T06:36:04;100962.09;;;0.14;81.59
50484;BME280;36409;52.168;20.878;2022-12-20T06:38:33;100963.77;;;0.13;82.17
50484;BME280;36409;52.168;20.878;2022-12-20T06:41:07;100956.06;;;0.13;81.33
50484;BME280;36409;52.168;20.878;2022-12-20T06:43:36;100958.63;;;0.13;81.62
50484;BME280;36409;52.168;20.878;2022-12-20T06:46:05;100950.92;;;0.13;82.56
50484;BME280;36409;52.168;20.878;2022-12-20T06:48:34;100961.20;;;0.13;81.85
50484;BME280;36409;52.168;20.878;2022-12-20T06:51:05;100961.20;;;0.13;81.93
50484;BME280;36409;52.168;20.878;2022-12-20T06:53:34;100962.95;;;0.14;82.46
50484;BME280;36409;52.168;20.878;2022-12-20T06:56:04;100964.70;;;0.15;82.33
50484;BME280;36409;52.168;20.878;2022-12-20T06:58:34;100978.48;;;0.18;82.48
50484;BME280;36409;52.168;20.878;2022-12-20T07:01:03;100977.67;;;0.19;82.08
50484;BME280;36409;52.168;20.878;2022-12-20T07:03:37;100978.61;;;0.21;82.31
50484;BME280;36409;52.168;20.878;2022-12-20T07:06:06;100991.54;;;0.24;82.48
50484;BME280;36409;52.168;20.878;2022-12-20T07:08:36;100980.45;;;0.25;82.42
50484;BME280;36409;52.168;20.878;2022-12-20T07:11:08;100984.86;;;0.27;82.37
50484;BME280;36409;52.168;20.878;2022-12-20T07:13:39;100992.61;;;0.29;81.56
50484;BME280;36409;52.168;20.878;2022-12-20T07:16:09;100996.11;;;0.31;81.70
50484;BME280;36409;52.168;20.878;2022-12-20T07:18:38;100983.31;;;0.33;82.00
50484;BME280;36409;52.168;20.878;2022-12-20T07:21:09;100982.63;;;0.37;81.93
50484;BME280;36409;52.168;20.878;2022-12-20T07:23:41;100983.56;;;0.39;81.62
50484;BME280;36409;52.168;20.878;2022-12-20T07:26:10;100981.04;;;0.40;82.60
50484;BME280;36409;52.168;20.878;2022-12-20T07:28:43;100983.61;;;0.40;82.61
50484;BME280;36409;52.168;20.878;2022-12-20T07:31:15;100987.98;;;0.43;82.50
50484;BME280;36409;52.168;20.878;2022-12-20T07:33:44;100982.02;;;0.44;82.12
50484;BME280;36409;52.168;20.878;2022-12-20T07:36:14;100988.14;;;0.48;81.59
50484;BME280;36409;52.168;20.878;2022-12-20T07:38:43;100982.27;;;0.50;82.58
50484;BME280;36409;52.168;20.878;2022-12-20T07:41:16;100978.92;;;0.53;82.22
50484;BME280;36409;52.168;20.878;2022-12-20T07:43:46;100974.00;;;0.59;82.62
50484;BME280;36409;52.168;20.878;2022-12-20T07:46:16;100977.55;;;0.63;82.35
50484;BME280;36409;52.168;20.878;2022-12-20T07:48:47;100978.59;;;0.68;81.94
50484;BME280;36409;52.168;20.878;2022-12-20T07:51:24;100977.91;;;0.72;81.68
50484;BME280;36409;52.168;20.878;2022-12-20T07:53:58;100978.06;;;0.76;82.22
50484;BME280;36409;52.168;20.878;2022-12-20T07:56:32;100978.15;;;0.80;82.21
50484;BME280;36409;52.168;20.878;2022-12-20T07:59:09;100978.22;;;0.81;81.48
50484;BME280;36409;52.168;20.878;2022-12-20T08:01:43;100980.91;;;0.84;81.62
50484;BME280;36409;52.168;20.878;2022-12-20T08:04:21;100973.24;;;0.86;82.04
50484;BME280;36409;52.168;20.878;2022-12-20T08:06:52;100978.42;;;0.87;82.42
50484;BME280;36409;52.168;20.878;2022-12-20T08:09:24;100981.07;;;0.89;81.47
50484;BME280;36409;52.168;20.878;2022-12-20T08:11:57;100987.11;;;0.91;82.34
50484;BME280;36409;52.168;20.878;2022-12-20T08:14:27;100986.30;;;0.92;81.86
50484;BME280;36409;52.168;20.878;2022-12-20T08:16:56;100988.05;;;0.93;81.55
50484;BME280;36409;52.168;20.878;2022-12-20T08:19:25;100991.52;;;0.94;82.25
50484;BME280;36409;52.168;20.878;2022-12-20T08:22:00;100982.98;;;0.95;82.04
50484;BME280;36409;52.168;20.878;2022-12-20T08:24:29;100983.06;;;0.98;82.29
50484;BME280;36409;52.168;20.878;2022-12-20T08:26:58;100979.67;;;0.99;81.77
50484;BME280;36409;52.168;20.878;2022-12-20T08:29:28;100976.36;;;1.01;81.43
50484;BME280;36409;52.168;20.878;2022-12-20T08:31:58;100968.69;;;1.03;81.39
50484;BME280;36409;52.168;20.878;2022-12-20T08:34:31;100970.48;;;1.05;82.10
50484;BME280;36409;52.168;20.878;2022-12-20T08:37:00;100957.66;;;1.07;81.76
50484;BME280;36409;52.168;20.878;2022-12-20T08:39:29;100961.23;;;1.11;81.34
50484;BME280;36409;52.168;20.878;2022-12-20T08:42:00;100962.21;;;1.14;81.40
50484;BME280;36409;52.168;20.878;2022-12-20T08:44:29;100966.69;;;1.20;82.25
50484;BME280;36409;52.168;20.878;2022-12-20T08:46:58;100959.23;;;1.28;81.26
50484;BME280;36409;52.168;20.878;2022-12-20T08:49:27;100956.88;;;1.35;81.62
50484;BME280;36409;52.168;20.878;2022-12-20T08:51:56;100964.86;;;1.43;82.14
50484;BME280;36409;52.168;20.878;2022-12-20T08:54:25;100959.15;;;1.52;81.17
50484;BME280;36409;52.168;20.878;2022-12-20T08:56:54;100954.19;;;1.58;81.91
50484;BME280;36409;52.168;20.878;2022-12-20T08:59:23;100954.29;;;1.61;81.14
50484;BME280;36409;52.168;20.878;2022-12-20T09:01:53;100956.94;;;1.63;81.66
50484;BME280;36409;52.168;20.878;2022-12-20T09:04:22;100965.52;;;1.63;81.00
50484;BME280;36409;52.168;20.878;2022-12-20T09:06:51;100966.44;;;1.65;81.92
50484;BME280;36409;52.168;20.878;2022-12-20T09:09:20;100962.16;;;1.66;81.64
50484;BME280;36409;52.168;20.878;2022-12-20T09:11:49;100961.41;;;1.68;81.01
50484;BME280;36409;52.168;20.878;2022-12-20T09:14:20;100954.64;;;1.72;80.90
50484;BME280;36409;52.168;20.878;2022-12-20T09:16:49;100954.78;;;1.77;81.80
50484;BME280;36409;52.168;20.878;2022-12-20T09:19:18;100964.50;;;1.85;81.10
50484;BME280;36409;52.168;20.878;2022-12-20T09:21:47;100955.34;;;1.95;81.14
50484;BME280;36409;52.168;20.878;2022-12-20T09:24:16;100944.48;;;2.06;80.97
50484;BME280;36409;52.168;20.878;2022-12-20T09:26:47;100947.45;;;2.20;80.69
50484;BME280;36409;52.168;20.878;2022-12-20T09:29:20;100950.53;;;2.37;80.94
50484;BME280;36409;52.168;20.878;2022-12-20T09:32:00;100950.88;;;2.49;81.48
50484;BME280;36409;52.168;20.878;2022-12-20T09:34:29;100939.93;;;2.56;80.70
50484;BME280;36409;52.168;20.878;2022-12-20T09:37:00;100935.88;;;2.66;80.62
50484;BME280;36409;52.168;20.878;2022-12-20T09:39:29;100946.47;;;2.75;81.27
50484;BME280;36409;52.168;20.878;2022-12-20T09:41:58;100938.05;;;2.83;80.72
50484;BME280;36409;52.168;20.878;2022-12-20T09:44:30;100933.84;;;2.86;80.52
50484;BME280;36409;52.168;20.878;2022-12-20T09:47:05;100930.58;;;2.93;81.02
50484;BME280;36409;52.168;20.878;2022-12-20T09:49:41;100945.43;;;3.02;80.40
50484;BME280;36409;52.168;20.878;2022-12-20T09:52:28;100947.39;;;3.11;80.55
50484;BME280;36409;52.168;20.878;2022-12-20T09:55:11;100947.75;;;3.27;79.88
50484;BME280;36409;52.168;20.878;2022-12-20T09:57:56;100949.92;;;3.45;80.23
50484;BME280;36409;52.168;20.878;2022-12-20T10:00:33;100954.03;;;3.36;80.49
50484;BME280;36409;52.168;20.878;2022-12-20T10:03:03;100952.17;;;3.31;80.28
50484;BME280;36409;52.168;20.878;2022-12-20T10:05:51;100953.83;;;3.29;80.53
50484;BME280;36409;52.168;20.878;2022-12-20T10:08:39;100949.48;;;3.26;80.01
50484;BME280;36409;52.168;20.878;2022-12-20T10:11:14;100946.87;;;3.24;79.71
50484;BME280;36409;52.168;20.878;2022-12-20T10:13:57;100953.00;;;3.30;79.78
50484;BME280;36409;52.168;20.878;2022-12-20T10:16:42;100941.93;;;3.34;79.94
50484;BME280;36409;52.168;20.878;2022-12-20T10:22:27;100948.14;;;3.42;79.73
50484;BME280;36409;52.168;20.878;2022-12-20T10:25:11;100949.03;;;3.43;80.24
50484;BME280;36409;52.168;20.878;2022-12-20T10:27:42;100951.62;;;3.43;79.31
50484;BME280;36409;52.168;20.878;2022-12-20T10:30:22;100949.30;;;3.55;80.00
50484;BME280;36409;52.168;20.878;2022-12-20T10:32:56;100944.20;;;3.57;79.17
50484;BME280;36409;52.168;20.878;2022-12-20T10:35:28;100945.86;;;3.54;79.67
50484;BME280;36409;52.168;20.878;2022-12-20T10:38:01;100941.91;;;3.69;79.24
50484;BME280;36409;52.168;20.878;2022-12-20T10:40:47;100936.31;;;3.89;79.08
50484;BME280;36409;52.168;20.878;2022-12-20T10:43:41;100925.05;;;4.26;78.70
50484;BME280;36409;52.168;20.878;2022-12-20T10:46:12;100920.61;;;4.63;78.04
50484;BME280;36409;52.168;20.878;2022-12-20T10:48:46;100922.81;;;4.89;77.94
50484;BME280;36409;52.168;20.878;2022-12-20T10:51:20;100914.89;;;5.32;77.62
50484;BME280;36409;52.168;20.878;2022-12-20T10:53:54;100909.91;;;5.45;77.59
50484;BME280;36409;52.168;20.878;2022-12-20T10:56:33;100909.44;;;5.15;78.37
50484;BME280;36409;52.168;20.878;2022-12-20T10:59:28;100897.96;;;4.99;78.40
50484;BME280;36409;52.168;20.878;2022-12-20T11:02:35;100895.69;;;4.69;78.20
50484;BME280;36409;52.168;20.878;2022-12-20T11:05:22;100895.14;;;4.39;78.35
50484;BME280;36409;52.168;20.878;2022-12-20T11:07:56;100888.84;;;4.25;78.17
50484;BME280;36409;52.168;20.878;2022-12-20T11:10:48;100879.19;;;4.16;78.25
50484;BME280;36409;52.168;20.878;2022-12-20T11:13:23;100874.56;;;3.99;78.52
50484;BME280;36409;52.168;20.878;2022-12-20T11:15:57;100868.22;;;3.85;78.31
50484;BME280;36409;52.168;20.878;2022-12-20T11:18:37;100864.64;;;3.78;78.49
50484;BME280;36409;52.168;20.878;2022-12-20T11:21:24;100846.36;;;3.69;78.09
50484;BME280;36409;52.168;20.878;2022-12-20T11:24:04;100851.28;;;3.58;78.28
50484;BME280;36409;52.168;20.878;2022-12-20T11:26:50;100838.91;;;3.43;77.82
50484;BME280;36409;52.168;20.878;2022-12-20T11:32:27;100867.52;;;3.16;77.96
50484;BME280;36409;52.168;20.878;2022-12-20T11:35:04;100867.25;;;3.05;78.76
50484;BME280;36409;52.168;20.878;2022-12-20T11:37:44;100869.72;;;3.00;78.47
50484;BME280;36409;52.168;20.878;2022-12-20T11:40:28;100861.87;;;2.96;78.14
50484;BME280;36409;52.168;20.878;2022-12-20T11:43:25;100859.09;;;2.88;78.81
50484;BME280;36409;52.168;20.878;2022-12-20T11:46:17;100858.92;;;2.80;78.30
50484;BME280;36409;52.168;20.878;2022-12-20T11:49:05;100858.81;;;2.75;77.89
50484;BME280;36409;52.168;20.878;2022-12-20T11:51:45;100854.42;;;2.73;78.26
50484;BME280;36409;52.168;20.878;2022-12-20T11:54:20;100839.88;;;2.75;77.99
50484;BME280;36409;52.168;20.878;2022-12-20T11:57:00;100841.70;;;2.79;78.93
50484;BME280;36409;52.168;20.878;2022-12-20T11:59:44;100836.75;;;2.87;78.20
50484;BME280;36409;52.168;20.878;2022-12-20T12:02:32;100841.30;;;2.97;78.20
50484;BME280;36409;52.168;20.878;2022-12-20T12:05:06;100844.20;;;3.11;78.35
50484;BME280;36409;52.168;20.878;2022-12-20T12:07:37;100838.60;;;3.29;78.56
50484;BME280;36409;52.168;20.878;2022-12-20T12:10:16;100841.61;;;3.49;78.80
50484;BME280;36409;52.168;20.878;2022-12-20T12:12:52;100848.85;;;3.64;78.16
50484;BME280;36409;52.168;20.878;2022-12-20T12:15:28;100841.31;;;3.75;78.49
50484;BME280;36409;52.168;20.878;2022-12-20T12:18:06;100839.74;;;3.82;78.09
50484;BME280;36409;52.168;20.878;2022-12-20T12:20:35;100838.92;;;3.84;78.54
50484;BME280;36409;52.168;20.878;2022-12-20T12:23:21;100836.25;;;3.80;78.19
50484;BME280;36409;52.168;20.878;2022-12-20T12:26:00;100830.98;;;3.75;78.04
50484;BME280;36409;52.168;20.878;2022-12-20T12:28:31;100835.98;;;3.67;78.06
50484;BME280;36409;52.168;20.878;2022-12-20T12:31:12;100833.20;;;3.58;78.27
50484;BME280;36409;52.168;20.878;2022-12-20T12:33:49;100840.78;;;3.50;77.65
50484;BME280;36409;52.168;20.878;2022-12-20T12:36:41;100842.32;;;3.42;78.02
50484;BME280;36409;52.168;20.878;2022-12-20T12:45:26;100842.83;;;3.26;77.55
50484;BME280;36409;52.168;20.878;2022-12-20T12:48:02;100839.27;;;3.22;77.56
50484;BME280;36409;52.168;20.878;2022-12-20T12:50:42;100842.64;;;3.18;77.52
50484;BME280;36409;52.168;20.878;2022-12-20T12:53:18;100839.95;;;3.13;77.47
50484;BME280;36409;52.168;20.878;2022-12-20T12:55:51;100837.27;;;3.08;77.55
50484;BME280;36409;52.168;20.878;2022-12-20T12:59:09;100851.74;;;3.03;77.46
50484;BME280;36409;52.168;20.878;2022-12-20T13:01:50;100838.66;;;2.96;78.11
50484;BME280;36409;52.168;20.878;2022-12-20T13:04:29;100835.05;;;2.89;77.90
50484;BME280;36409;52.168;20.878;2022-12-20T13:09:56;100850.30;;;2.80;77.58
50484;BME280;36409;52.168;20.878;2022-12-20T13:15:47;100848.41;;;2.72;78.04
50484;BME280;36409;52.168;20.878;2022-12-20T13:18:28;100846.63;;;2.70;77.91
50484;BME280;36409;52.168;20.878;2022-12-20T13:21:29;100846.57;;;2.68;78.09
50484;BME280;36409;52.168;20.878;2022-12-20T13:27:30;100849.12;;;2.67;78.02
50484;BME280;36409;52.168;20.878;2022-12-20T13:33:23;100856.77;;;2.63;77.87
50484;BME280;36409;52.168;20.878;2022-12-20T13:36:33;100859.31;;;2.62;78.05
50484;BME280;36409;52.168;20.878;2022-12-20T13:39:31;100860.95;;;2.58;78.04
50484;BME280;36409;52.168;20.878;2022-12-20T13:42:15;100860.77;;;2.52;77.54
50484;BME280;36409;52.168;20.878;2022-12-20T13:44:56;100863.22;;;2.47;78.09
50484;BME280;36409;52.168;20.878;2022-12-20T13:47:47;100868.29;;;2.44;77.71
50484;BME280;36409;52.168;20.878;2022-12-20T13:50:33;100866.48;;;2.40;77.77